createdAt,value
2018-07-24T00:02:45.455Z,9.50
2018-07-24T00:06:49.207Z,10.03
2018-07-24T00:10:53.100Z,11.63
2018-07-24T00:14:57.013Z,11.20
2018-07-24T00:19:00.856Z,11.33
2018-07-24T00:23:04.538Z,11.13
2018-07-24T00:27:08.043Z,11.60
2018-07-24T00:31:11.807Z,12.50
2018-07-24T00:35:15.883Z,12.40
2018-07-24T00:39:19.753Z,12.20
2018-07-24T00:43:23.599Z,11.93
2018-07-24T00:47:27.288Z,13.20
2018-07-24T00:51:30.998Z,13.73
2018-07-24T00:55:34.907Z,13.50
2018-07-24T00:59:38.755Z,15.47
2018-07-24T01:03:42.526Z,13.20
2018-07-24T01:07:46.030Z,13.77
2018-07-24T01:11:49.799Z,13.30
2018-07-24T01:15:53.650Z,14.00
2018-07-24T01:19:57.555Z,13.13
2018-07-24T01:24:01.399Z,17.33
2018-07-24T01:28:05.062Z,15.83
2018-07-24T01:32:08.574Z,16.03
2018-07-24T01:36:12.608Z,15.80
2018-07-24T01:40:16.461Z,14.97
2018-07-24T01:44:20.154Z,16.57
2018-07-24T01:48:23.884Z,16.77
2018-07-24T01:52:28.099Z,19.97
2018-07-24T01:56:31.972Z,17.20
2018-07-24T02:00:35.925Z,17.87
2018-07-24T02:04:39.772Z,19.40
2018-07-24T02:08:43.684Z,18.80
2018-07-24T02:12:47.537Z,21.07
2018-07-24T02:16:51.232Z,19.33
2018-07-24T02:20:54.962Z,20.97
2018-07-24T02:24:58.878Z,19.93
2018-07-24T02:29:02.728Z,21.87
2018-07-24T02:33:06.419Z,19.67
2018-07-24T02:37:10.652Z,19.53
2018-07-24T02:41:14.355Z,20.20
2018-07-24T02:45:18.087Z,20.10
2018-07-24T02:49:22.053Z,21.07
2018-07-24T02:53:25.907Z,20.70
2018-07-24T02:57:29.606Z,21.27
2018-07-24T03:01:33.123Z,20.83
2018-07-24T03:05:36.887Z,18.63
2018-07-24T03:09:40.756Z,19.27
2018-07-24T03:13:44.648Z,19.13
2018-07-24T03:17:48.280Z,20.63
2018-07-24T03:21:52.181Z,19.20
2018-07-24T03:25:56.040Z,19.90
2018-07-24T03:29:59.952Z,18.60
2018-07-24T03:34:03.603Z,19.90
2018-07-24T03:38:07.587Z,22.17
2018-07-24T03:42:11.449Z,23.03
2018-07-24T03:46:15.320Z,22.77
2018-07-24T03:50:19.316Z,22.77
2018-07-24T03:54:23.297Z,24.03
2018-07-24T03:58:27.140Z,24.33
2018-07-24T04:02:31.027Z,21.40
2018-07-24T04:06:34.927Z,19.00
2018-07-24T04:10:38.911Z,17.17
2018-07-24T04:14:42.755Z,21.00
2018-07-24T04:18:48.420Z,20.90
2018-07-24T04:22:52.272Z,25.00
2018-07-24T04:26:56.177Z,24.23
2018-07-24T04:31:00.102Z,23.90
2018-07-24T04:35:03.844Z,26.53
2018-07-24T04:39:08.299Z,25.67
2018-07-24T04:43:12.193Z,27.20
2018-07-24T04:47:15.843Z,27.33
2018-07-24T04:51:19.652Z,28.03
2018-07-24T04:55:23.497Z,27.03
2018-07-24T04:59:27.391Z,30.20
2018-07-24T05:03:31.035Z,28.60
2018-07-24T05:07:34.599Z,26.83
2018-07-24T05:11:38.115Z,23.07
2018-07-24T05:15:41.661Z,21.07
2018-07-24T05:19:45.195Z,22.13
2018-07-24T05:23:49.086Z,21.07
2018-07-24T05:27:52.928Z,25.30
2018-07-24T05:31:56.716Z,23.57
2018-07-24T05:36:00.443Z,25.00
2018-07-24T05:40:04.536Z,26.17
2018-07-24T05:44:08.499Z,28.40
2018-07-24T05:48:12.524Z,29.77
2018-07-24T05:52:16.400Z,27.93
2018-07-24T05:56:20.312Z,27.80
2018-07-24T06:00:24.700Z,31.20
2018-07-24T06:04:28.672Z,28.03
2018-07-24T06:08:32.529Z,29.87
2018-07-24T06:12:36.295Z,28.93
2018-07-24T06:16:40.066Z,28.23
2018-07-24T06:20:43.955Z,31.53
2018-07-24T06:24:47.817Z,34.40
2018-07-24T06:28:51.527Z,28.67
2018-07-24T06:32:55.043Z,25.13
2018-07-24T06:36:58.610Z,20.67
2018-07-24T06:41:02.468Z,20.10
2018-07-24T06:45:06.377Z,18.07
2018-07-24T06:49:10.243Z,19.33
2018-07-24T06:53:14.027Z,18.27
2018-07-24T06:57:17.767Z,18.13
2018-07-24T07:01:21.657Z,17.67
2018-07-24T07:05:25.512Z,15.13
2018-07-24T07:09:29.184Z,15.83
2018-07-24T07:13:32.749Z,13.57
2018-07-24T07:17:36.552Z,14.10
2018-07-24T07:21:40.204Z,17.67
2018-07-24T07:25:43.979Z,18.10
2018-07-24T07:29:47.636Z,17.97
2018-07-24T07:33:51.403Z,15.20
2018-07-24T07:37:55.267Z,14.87
2018-07-24T07:41:59.395Z,14.17
2018-07-24T07:46:03.028Z,13.83
2018-07-24T07:50:06.568Z,13.57
2018-07-24T07:54:10.300Z,11.57
2018-07-24T07:58:14.088Z,12.33
2018-07-24T08:02:17.831Z,9.80
2018-07-24T08:06:21.524Z,8.77
2018-07-24T08:10:25.033Z,8.23
2018-07-24T08:14:28.812Z,7.37
2018-07-24T08:18:32.659Z,6.63
2018-07-24T08:22:36.543Z,6.10
2018-07-24T08:26:40.258Z,6.33
2018-07-24T08:30:44.016Z,6.20
2018-07-24T08:34:47.896Z,5.77
2018-07-24T08:38:51.612Z,5.83
2018-07-24T08:42:55.460Z,7.63
2018-07-24T08:46:59.127Z,6.60
2018-07-24T08:51:02.640Z,6.70
2018-07-24T08:55:06.483Z,4.87
2018-07-24T08:59:09.723Z,4.77
2018-07-24T09:03:13.587Z,4.83
2018-07-24T09:07:17.375Z,4.70
2018-07-24T09:11:21.440Z,4.53
2018-07-24T09:15:25.306Z,4.07
2018-07-24T09:19:30.171Z,4.40
2018-07-24T09:23:34.022Z,4.43
2018-07-24T09:27:37.777Z,5.03
2018-07-24T09:31:41.517Z,5.17
2018-07-24T09:35:45.203Z,5.50
2018-07-24T09:39:48.936Z,7.80
2018-07-24T09:43:53.088Z,4.73
2018-07-24T09:47:56.958Z,4.73
2018-07-24T09:52:00.852Z,4.83
2018-07-24T09:56:04.507Z,6.80
2018-07-24T10:00:08.247Z,4.40
2018-07-24T10:04:12.000Z,4.87
2018-07-24T10:08:15.900Z,4.70
2018-07-24T10:12:19.760Z,4.97
2018-07-24T10:16:23.708Z,5.77
2018-07-24T10:20:27.325Z,5.57
2018-07-24T10:24:31.285Z,4.60
2018-07-24T10:28:34.923Z,5.10
2018-07-24T10:32:38.784Z,5.00
2018-07-24T10:36:42.635Z,5.40
2018-07-24T10:40:46.380Z,4.87
2018-07-24T10:44:50.292Z,4.90
2018-07-24T10:48:54.208Z,4.90
2018-07-24T10:52:57.834Z,4.53
2018-07-24T10:57:01.585Z,4.43
2018-07-24T11:01:05.216Z,5.50
2018-07-24T11:05:08.815Z,4.50
2018-07-24T11:09:12.481Z,4.57
2018-07-24T11:13:16.480Z,4.57
2018-07-24T11:17:20.342Z,4.33
2018-07-24T11:21:24.115Z,4.50
2018-07-24T11:25:27.863Z,4.67
2018-07-24T11:29:31.815Z,4.90
2018-07-24T11:33:35.632Z,5.00
2018-07-24T11:37:39.418Z,4.97
2018-07-24T11:41:43.057Z,4.50
2018-07-24T11:45:46.948Z,3.93
2018-07-24T11:49:50.676Z,4.87
2018-07-24T11:53:54.623Z,4.00
2018-07-24T11:57:58.453Z,4.40
2018-07-24T12:02:02.141Z,5.27
2018-07-24T12:06:05.863Z,4.20
2018-07-24T12:10:09.758Z,4.63
2018-07-24T12:14:13.613Z,4.60
2018-07-24T12:18:17.271Z,4.07
2018-07-24T12:22:20.788Z,4.43
2018-07-24T12:26:24.338Z,4.50
2018-07-24T12:30:28.060Z,4.97
2018-07-24T12:34:31.936Z,5.70
2018-07-24T12:38:35.594Z,5.23
2018-07-24T12:42:39.452Z,4.70
2018-07-24T12:46:43.568Z,6.80
2018-07-24T12:50:47.548Z,4.57
2018-07-24T12:54:51.400Z,4.80
2018-07-24T12:58:55.155Z,6.40
2018-07-24T13:02:58.674Z,4.30
2018-07-24T13:07:02.548Z,4.63
2018-07-24T13:11:06.328Z,3.97
2018-07-24T13:15:10.128Z,5.23
2018-07-24T13:19:13.978Z,5.17
2018-07-24T13:23:17.675Z,4.93
2018-07-24T13:27:21.404Z,5.77
2018-07-24T13:31:25.340Z,4.87
2018-07-24T13:35:29.274Z,5.00
2018-07-24T13:39:32.920Z,4.70
2018-07-24T13:43:36.434Z,5.03
2018-07-24T13:47:40.304Z,4.47
2018-07-24T13:51:43.938Z,5.30
2018-07-24T13:55:47.704Z,4.77
2018-07-24T13:59:51.343Z,4.80
2018-07-24T14:03:54.896Z,4.77
2018-07-24T14:07:58.615Z,4.90
2018-07-24T14:12:02.574Z,5.50
2018-07-24T14:16:06.304Z,5.43
2018-07-24T14:20:09.855Z,4.90
2018-07-24T14:24:13.595Z,5.70
2018-07-24T14:28:17.276Z,4.90
2018-07-24T14:32:20.815Z,5.13
2018-07-24T14:36:24.454Z,6.10
2018-07-24T14:40:28.255Z,5.90
2018-07-24T14:44:32.064Z,6.13
2018-07-24T14:48:36.031Z,7.03
2018-07-24T14:52:39.750Z,6.10
2018-07-24T14:56:43.452Z,6.40
2018-07-24T15:00:47.349Z,6.50
2018-07-24T15:04:51.294Z,6.90
2018-07-24T15:08:54.954Z,5.60
2018-07-24T15:12:58.479Z,5.30
2018-07-24T15:17:02.283Z,6.00
2018-07-24T15:21:05.924Z,6.33
2018-07-24T15:25:09.784Z,6.57
2018-07-24T15:29:13.426Z,6.03
2018-07-24T15:33:17.003Z,5.73
2018-07-24T15:37:20.721Z,6.87
2018-07-24T15:41:24.685Z,6.63
2018-07-24T15:45:28.255Z,5.77
2018-07-24T15:49:32.224Z,6.27
2018-07-24T15:53:35.961Z,6.40
2018-07-24T15:57:40.009Z,5.97
2018-07-24T16:01:43.572Z,8.13
2018-07-24T16:05:47.364Z,7.10
2018-07-24T16:09:50.994Z,6.47
2018-07-24T16:13:54.781Z,6.90
2018-07-24T16:17:58.644Z,6.73
2018-07-24T16:22:02.553Z,7.10
2018-07-24T16:26:06.423Z,7.03
2018-07-24T16:30:10.107Z,7.53
2018-07-24T16:34:13.616Z,11.23
2018-07-24T16:38:17.209Z,7.57
2018-07-24T16:42:20.935Z,6.53
2018-07-24T16:46:24.608Z,6.83
2018-07-24T16:50:28.246Z,7.30
2018-07-24T16:54:32.167Z,6.47
2018-07-24T16:58:36.063Z,5.80
2018-07-24T17:02:40.016Z,5.47
2018-07-24T17:06:43.591Z,5.77
2018-07-24T17:10:47.575Z,6.33
2018-07-24T17:14:51.564Z,10.10
2018-07-24T17:18:55.456Z,5.73
2018-07-24T17:22:59.101Z,6.10
2018-07-24T17:27:02.683Z,5.80
2018-07-24T17:31:06.900Z,6.20
2018-07-24T17:35:10.769Z,15.93
2018-07-24T17:39:14.390Z,6.83
2018-07-24T17:43:18.248Z,8.53
2018-07-24T17:47:22.090Z,7.70
2018-07-24T17:51:25.871Z,7.73
2018-07-24T17:55:29.627Z,7.10
2018-07-24T17:59:33.553Z,7.47
2018-07-24T18:03:37.387Z,7.87
2018-07-24T18:07:41.127Z,8.43
2018-07-24T18:11:44.636Z,7.57
2018-07-24T18:15:48.489Z,7.40
2018-07-24T18:19:52.076Z,7.97
2018-07-24T18:23:55.839Z,7.93
2018-07-24T18:27:59.667Z,9.00
2018-07-24T18:32:03.367Z,8.93
2018-07-24T18:36:07.078Z,14.03
2018-07-24T18:40:11.600Z,8.37
2018-07-24T18:44:15.426Z,8.33
2018-07-24T18:48:19.327Z,15.63
2018-07-24T18:52:23.076Z,11.40
2018-07-24T18:56:26.615Z,9.43
2018-07-24T19:00:30.111Z,9.57
2018-07-24T19:04:33.880Z,8.47
2018-07-24T19:08:37.724Z,9.20
2018-07-24T19:12:41.632Z,8.83
2018-07-24T19:16:45.268Z,9.33
2018-07-24T19:20:49.055Z,8.83
2018-07-24T19:24:52.895Z,10.00
2018-07-24T19:28:56.789Z,10.20
2018-07-24T19:33:00.412Z,9.17
2018-07-24T19:37:04.196Z,10.07
2018-07-24T19:41:08.049Z,9.53
2018-07-24T19:45:11.936Z,9.33
2018-07-24T19:49:15.774Z,9.60
2018-07-24T19:53:19.772Z,7.73
2018-07-24T19:57:23.611Z,11.30
2018-07-24T20:01:27.380Z,10.10
2018-07-24T20:05:31.104Z,12.43
2018-07-24T20:09:35.123Z,14.50
2018-07-24T20:13:38.970Z,12.47
2018-07-24T20:17:42.873Z,13.30
2018-07-24T20:21:46.729Z,12.20
2018-07-24T20:25:50.651Z,12.77
2018-07-24T20:29:54.293Z,12.17
2018-07-24T20:33:58.125Z,13.90
2018-07-24T20:38:02.059Z,14.00
2018-07-24T20:42:05.956Z,13.07
2018-07-24T20:46:09.587Z,13.97
2018-07-24T20:50:13.115Z,11.63
2018-07-24T20:54:16.878Z,10.37
2018-07-24T20:58:20.572Z,14.67
2018-07-24T21:02:24.305Z,12.53
2018-07-24T21:06:28.300Z,12.20
2018-07-24T21:10:32.153Z,12.33
2018-07-24T21:14:36.136Z,13.57
2018-07-24T21:18:39.977Z,10.87
2018-07-24T21:22:43.859Z,12.53
2018-07-24T21:26:47.713Z,11.60
2018-07-24T21:30:51.375Z,11.43
2018-07-24T21:34:55.275Z,10.17
2018-07-24T21:38:59.180Z,11.50
2018-07-24T21:43:02.815Z,9.87
2018-07-24T21:47:06.567Z,9.77
2018-07-24T21:51:10.201Z,9.23
2018-07-24T21:55:14.012Z,12.83
2018-07-24T21:59:17.655Z,12.77
2018-07-24T22:03:21.431Z,13.00
2018-07-24T22:07:25.288Z,11.63
2018-07-24T22:11:29.177Z,10.40
2018-07-24T22:15:32.823Z,12.30
2018-07-24T22:19:36.696Z,13.33
2018-07-24T22:23:40.556Z,12.13
2018-07-24T22:27:44.271Z,11.73
2018-07-24T22:31:48.008Z,12.63
2018-07-24T22:35:51.896Z,12.90
2018-07-24T22:39:55.739Z,13.60
2018-07-24T22:43:59.647Z,14.07
2018-07-24T22:48:03.524Z,13.30
2018-07-24T22:52:07.508Z,12.13
2018-07-24T22:56:11.215Z,12.37
2018-07-24T23:00:14.977Z,12.33
2018-07-24T23:04:18.825Z,14.67
2018-07-24T23:12:21.991Z,14.17
2018-07-24T23:16:25.837Z,12.43
2018-07-24T23:20:29.792Z,13.83
2018-07-24T23:24:33.643Z,13.87
2018-07-24T23:28:37.625Z,13.73
2018-07-24T23:32:41.463Z,13.60
2018-07-24T23:36:49.292Z,15.27
2018-07-24T23:40:52.932Z,15.13
2018-07-24T23:44:56.680Z,15.10
2018-07-24T23:49:00.548Z,15.33
2018-07-24T23:53:04.431Z,15.77
2018-07-24T23:57:08.332Z,15.97
